sensor_id;sensor_type;location;lat;lon;timestamp;pressure;altitude;pressure_sealevel;temperature;humidity
77587;BME280;66744;49.716;17.158;2023-07-16T00:00:35;98719.19;;;25.00;53.87
77587;BME280;66744;49.716;17.158;2023-07-16T00:03:38;98715.03;;;25.01;53.84
77587;BME280;66744;49.716;17.158;2023-07-16T00:06:39;98722.50;;;25.11;53.33
77587;BME280;66744;49.716;17.158;2023-07-16T00:09:41;98722.94;;;25.15;53.56
77587;BME280;66744;49.716;17.158;2023-07-16T00:12:44;98720.34;;;25.17;53.81
77587;BME280;66744;49.716;17.158;2023-07-16T00:15:45;98711.03;;;25.09;54.06
77587;BME280;66744;49.716;17.158;2023-07-16T00:18:47;98712.22;;;25.01;54.38
77587;BME280;66744;49.716;17.158;2023-07-16T00:21:48;98700.78;;;24.85;54.83
77587;BME280;66744;49.716;17.158;2023-07-16T00:24:50;98701.13;;;24.82;54.66
77587;BME280;66744;49.716;17.158;2023-07-16T00:27:51;98702.84;;;24.85;54.67
77587;BME280;66744;49.716;17.158;2023-07-16T00:30:52;98702.09;;;24.84;54.55
77587;BME280;66744;49.716;17.158;2023-07-16T00:33:54;98710.53;;;24.84;54.61
77587;BME280;66744;49.716;17.158;2023-07-16T00:36:55;98702.63;;;24.83;54.96
77587;BME280;66744;49.716;17.158;2023-07-16T00:40:02;98697.63;;;24.76;54.80
77587;BME280;66744;49.716;17.158;2023-07-16T00:43:05;98702.38;;;24.55;55.83
77587;BME280;66744;49.716;17.158;2023-07-16T00:46:07;98699.19;;;24.32;56.56
77587;BME280;66744;49.716;17.158;2023-07-16T00:49:09;98702.44;;;24.23;56.30
77587;BME280;66744;49.716;17.158;2023-07-16T00:52:16;98683.63;;;24.18;56.60
77587;BME280;66744;49.716;17.158;2023-07-16T00:55:19;98694.94;;;24.12;57.30
77587;BME280;66744;49.716;17.158;2023-07-16T00:58:20;98701.88;;;23.93;57.91
77587;BME280;66744;49.716;17.158;2023-07-16T01:01:22;98705.84;;;23.84;57.71
77587;BME280;66744;49.716;17.158;2023-07-16T01:04:24;98700.25;;;23.65;57.87
77587;BME280;66744;49.716;17.158;2023-07-16T01:07:27;98709.81;;;23.57;57.43
77587;BME280;66744;49.716;17.158;2023-07-16T01:10:30;98699.63;;;23.35;58.06
77587;BME280;66744;49.716;17.158;2023-07-16T01:13:32;98694.47;;;23.20;59.09
77587;BME280;66744;49.716;17.158;2023-07-16T01:16:33;98684.38;;;23.12;59.20
77587;BME280;66744;49.716;17.158;2023-07-16T01:19:35;98689.53;;;23.08;59.67
77587;BME280;66744;49.716;17.158;2023-07-16T01:23:00;98680.34;;;22.89;60.07
77587;BME280;66744;49.716;17.158;2023-07-16T01:26:20;98687.94;;;22.94;59.80
77587;BME280;66744;49.716;17.158;2023-07-16T01:29:38;98671.31;;;22.77;60.43
77587;BME280;66744;49.716;17.158;2023-07-16T01:32:43;98678.72;;;22.75;60.87
77587;BME280;66744;49.716;17.158;2023-07-16T01:35:49;98689.97;;;22.69;61.66
77587;BME280;66744;49.716;17.158;2023-07-16T01:38:51;98675.53;;;22.65;61.59
77587;BME280;66744;49.716;17.158;2023-07-16T01:41:55;98673.94;;;22.69;61.82
77587;BME280;66744;49.716;17.158;2023-07-16T01:44:59;98666.09;;;22.68;62.87
77587;BME280;66744;49.716;17.158;2023-07-16T01:48:31;98674.69;;;22.70;62.29
77587;BME280;66744;49.716;17.158;2023-07-16T01:51:37;98678.13;;;22.57;63.30
77587;BME280;66744;49.716;17.158;2023-07-16T01:54:38;98662.72;;;22.45;63.61
77587;BME280;66744;49.716;17.158;2023-07-16T01:57:39;98686.34;;;22.50;63.28
77587;BME280;66744;49.716;17.158;2023-07-16T02:00:41;98693.00;;;22.47;63.22
77587;BME280;66744;49.716;17.158;2023-07-16T02:03:42;98681.72;;;22.28;62.83
77587;BME280;66744;49.716;17.158;2023-07-16T02:06:44;98694.94;;;22.28;62.28
77587;BME280;66744;49.716;17.158;2023-07-16T02:09:45;98688.91;;;22.24;62.77
77587;BME280;66744;49.716;17.158;2023-07-16T02:12:47;98684.84;;;22.19;62.71
77587;BME280;66744;49.716;17.158;2023-07-16T02:15:48;98695.50;;;22.26;63.08
77587;BME280;66744;49.716;17.158;2023-07-16T02:18:49;98682.13;;;22.13;63.55
77587;BME280;66744;49.716;17.158;2023-07-16T02:21:51;98692.53;;;22.13;63.87
77587;BME280;66744;49.716;17.158;2023-07-16T02:24:52;98691.44;;;22.22;63.99
77587;BME280;66744;49.716;17.158;2023-07-16T02:27:53;98680.56;;;22.18;64.20
77587;BME280;66744;49.716;17.158;2023-07-16T02:30:55;98684.16;;;22.13;64.08
77587;BME280;66744;49.716;17.158;2023-07-16T02:33:56;98694.56;;;22.12;64.96
77587;BME280;66744;49.716;17.158;2023-07-16T02:36:58;98698.09;;;22.19;64.89
77587;BME280;66744;49.716;17.158;2023-07-16T02:40:03;98699.44;;;22.12;65.07
77587;BME280;66744;49.716;17.158;2023-07-16T02:43:05;98702.25;;;22.06;65.39
77587;BME280;66744;49.716;17.158;2023-07-16T02:46:13;98713.50;;;22.01;65.88
77587;BME280;66744;49.716;17.158;2023-07-16T02:49:14;98705.72;;;21.88;65.47
77587;BME280;66744;49.716;17.158;2023-07-16T02:52:15;98720.19;;;21.87;65.85
77587;BME280;66744;49.716;17.158;2023-07-16T02:55:17;98715.19;;;21.74;66.74
77587;BME280;66744;49.716;17.158;2023-07-16T02:58:18;98707.19;;;21.54;66.25
77587;BME280;66744;49.716;17.158;2023-07-16T03:01:19;98711.81;;;21.46;66.36
77587;BME280;66744;49.716;17.158;2023-07-16T03:04:21;98719.69;;;21.47;66.99
77587;BME280;66744;49.716;17.158;2023-07-16T03:07:22;98725.72;;;21.57;66.70
77587;BME280;66744;49.716;17.158;2023-07-16T03:10:25;98730.75;;;21.70;64.77
77587;BME280;66744;49.716;17.158;2023-07-16T03:13:27;98747.44;;;21.81;65.46
77587;BME280;66744;49.716;17.158;2023-07-16T03:16:29;98745.69;;;21.78;65.97
77587;BME280;66744;49.716;17.158;2023-07-16T03:19:33;98735.03;;;21.76;65.99
77587;BME280;66744;49.716;17.158;2023-07-16T03:22:37;98738.31;;;21.75;65.64
77587;BME280;66744;49.716;17.158;2023-07-16T03:25:39;98750.53;;;21.72;66.41
77587;BME280;66744;49.716;17.158;2023-07-16T03:28:40;98752.34;;;21.69;66.66
77587;BME280;66744;49.716;17.158;2023-07-16T03:31:44;98749.09;;;21.59;66.07
77587;BME280;66744;49.716;17.158;2023-07-16T03:34:50;98739.19;;;21.58;66.94
77587;BME280;66744;49.716;17.158;2023-07-16T03:37:52;98750.50;;;21.77;66.61
77587;BME280;66744;49.716;17.158;2023-07-16T03:40:53;98754.06;;;21.78;66.26
77587;BME280;66744;49.716;17.158;2023-07-16T03:43:55;98754.84;;;21.78;66.74
77587;BME280;66744;49.716;17.158;2023-07-16T03:46:56;98763.41;;;21.97;66.41
77587;BME280;66744;49.716;17.158;2023-07-16T03:49:57;98762.09;;;21.98;66.40
77587;BME280;66744;49.716;17.158;2023-07-16T03:52:59;98771.78;;;21.97;67.05
77587;BME280;66744;49.716;17.158;2023-07-16T03:56:01;98764.38;;;21.99;67.14
77587;BME280;66744;49.716;17.158;2023-07-16T03:59:03;98764.63;;;22.01;67.15
77587;BME280;66744;49.716;17.158;2023-07-16T04:02:05;98761.50;;;22.10;66.28
77587;BME280;66744;49.716;17.158;2023-07-16T04:05:07;98770.38;;;22.14;66.33
77587;BME280;66744;49.716;17.158;2023-07-16T04:08:09;98769.25;;;22.29;66.33
77587;BME280;66744;49.716;17.158;2023-07-16T04:11:10;98765.38;;;22.37;65.11
77587;BME280;66744;49.716;17.158;2023-07-16T04:14:14;98758.66;;;22.46;65.61
77587;BME280;66744;49.716;17.158;2023-07-16T04:17:15;98750.84;;;22.39;65.50
77587;BME280;66744;49.716;17.158;2023-07-16T04:20:16;98764.69;;;22.55;65.55
77587;BME280;66744;49.716;17.158;2023-07-16T04:23:18;98778.88;;;22.68;65.52
77587;BME280;66744;49.716;17.158;2023-07-16T04:26:20;98767.28;;;22.78;65.16
77587;BME280;66744;49.716;17.158;2023-07-16T04:29:21;98773.78;;;22.91;65.15
77587;BME280;66744;49.716;17.158;2023-07-16T04:32:23;98771.63;;;23.03;64.54
77587;BME280;66744;49.716;17.158;2023-07-16T04:35:24;98773.38;;;23.06;64.05
77587;BME280;66744;49.716;17.158;2023-07-16T04:38:34;98769.94;;;23.18;64.60
77587;BME280;66744;49.716;17.158;2023-07-16T04:41:35;98771.44;;;23.19;65.45
77587;BME280;66744;49.716;17.158;2023-07-16T04:44:39;98795.03;;;23.30;65.30
77587;BME280;66744;49.716;17.158;2023-07-16T04:47:40;98811.38;;;23.25;65.95
77587;BME280;66744;49.716;17.158;2023-07-16T04:50:42;98838.66;;;23.25;65.28
77587;BME280;66744;49.716;17.158;2023-07-16T04:53:43;98862.81;;;23.28;65.00
77587;BME280;66744;49.716;17.158;2023-07-16T04:56:44;98859.44;;;23.35;63.75
77587;BME280;66744;49.716;17.158;2023-07-16T04:59:46;98857.16;;;23.34;63.87
77587;BME280;66744;49.716;17.158;2023-07-16T05:02:47;98854.88;;;23.32;64.31
77587;BME280;66744;49.716;17.158;2023-07-16T05:05:51;98861.97;;;23.39;64.06
77587;BME280;66744;49.716;17.158;2023-07-16T05:08:55;98873.41;;;23.41;63.95
77587;BME280;66744;49.716;17.158;2023-07-16T05:11:56;98885.88;;;23.45;64.44
77587;BME280;66744;49.716;17.158;2023-07-16T05:14:58;98896.56;;;23.47;65.35
77587;BME280;66744;49.716;17.158;2023-07-16T05:17:59;98895.06;;;23.64;64.24
77587;BME280;66744;49.716;17.158;2023-07-16T05:21:00;98884.81;;;23.72;64.30
77587;BME280;66744;49.716;17.158;2023-07-16T05:24:02;98906.19;;;23.94;64.01
77587;BME280;66744;49.716;17.158;2023-07-16T05:27:07;98904.53;;;24.04;64.17
77587;BME280;66744;49.716;17.158;2023-07-16T05:30:08;98901.91;;;24.12;64.25
77587;BME280;66744;49.716;17.158;2023-07-16T05:33:10;98892.13;;;24.18;62.92
77587;BME280;66744;49.716;17.158;2023-07-16T05:36:11;98897.56;;;24.29;63.00
77587;BME280;66744;49.716;17.158;2023-07-16T05:39:13;98893.88;;;24.40;63.49
77587;BME280;66744;49.716;17.158;2023-07-16T05:42:14;98909.25;;;24.52;62.65
77587;BME280;66744;49.716;17.158;2023-07-16T05:45:16;98925.94;;;24.63;62.23
77587;BME280;66744;49.716;17.158;2023-07-16T05:48:17;98919.56;;;24.63;62.72
77587;BME280;66744;49.716;17.158;2023-07-16T05:51:19;98915.06;;;24.73;62.22
77587;BME280;66744;49.716;17.158;2023-07-16T05:54:20;98907.47;;;24.86;62.28
77587;BME280;66744;49.716;17.158;2023-07-16T05:57:21;98917.13;;;25.04;61.68
77587;BME280;66744;49.716;17.158;2023-07-16T06:00:23;98914.69;;;25.14;61.67
77587;BME280;66744;49.716;17.158;2023-07-16T06:03:24;98912.31;;;25.31;61.12
77587;BME280;66744;49.716;17.158;2023-07-16T06:06:27;98920.34;;;25.40;60.18
77587;BME280;66744;49.716;17.158;2023-07-16T06:09:31;98934.66;;;25.55;60.46
77587;BME280;66744;49.716;17.158;2023-07-16T06:12:32;98920.16;;;25.64;59.71
77587;BME280;66744;49.716;17.158;2023-07-16T06:15:34;98924.59;;;25.86;59.94
77587;BME280;66744;49.716;17.158;2023-07-16T06:18:35;98920.16;;;26.04;58.52
77587;BME280;66744;49.716;17.158;2023-07-16T06:21:41;98921.34;;;26.21;58.16
77587;BME280;66744;49.716;17.158;2023-07-16T06:24:45;98928.44;;;26.35;57.51
77587;BME280;66744;49.716;17.158;2023-07-16T06:27:47;98922.78;;;26.48;57.62
77587;BME280;66744;49.716;17.158;2023-07-16T06:30:49;98934.94;;;26.64;57.07
77587;BME280;66744;49.716;17.158;2023-07-16T06:33:53;98933.28;;;26.82;56.43
77587;BME280;66744;49.716;17.158;2023-07-16T06:36:55;98927.16;;;26.91;55.52
77587;BME280;66744;49.716;17.158;2023-07-16T06:39:56;98943.34;;;27.11;55.45
77587;BME280;66744;49.716;17.158;2023-07-16T06:42:58;98940.84;;;27.28;55.33
77587;BME280;66744;49.716;17.158;2023-07-16T06:45:59;98942.50;;;27.44;55.12
77587;BME280;66744;49.716;17.158;2023-07-16T06:49:00;98948.88;;;27.66;54.35
77587;BME280;66744;49.716;17.158;2023-07-16T06:52:02;98947.84;;;27.84;53.67
77587;BME280;66744;49.716;17.158;2023-07-16T06:55:06;98945.66;;;27.97;53.42
77587;BME280;66744;49.716;17.158;2023-07-16T06:58:11;98941.22;;;28.09;52.06
77587;BME280;66744;49.716;17.158;2023-07-16T07:01:15;98949.19;;;28.19;51.45
77587;BME280;66744;49.716;17.158;2023-07-16T07:04:16;98955.78;;;28.21;51.10
77587;BME280;66744;49.716;17.158;2023-07-16T07:07:20;98962.25;;;28.29;51.48
77587;BME280;66744;49.716;17.158;2023-07-16T07:10:22;98965.06;;;28.29;50.77
77587;BME280;66744;49.716;17.158;2023-07-16T07:13:24;98961.47;;;28.29;51.27
77587;BME280;66744;49.716;17.158;2023-07-16T07:16:25;98972.63;;;28.34;51.50
77587;BME280;66744;49.716;17.158;2023-07-16T07:19:29;98973.78;;;28.39;50.66
77587;BME280;66744;49.716;17.158;2023-07-16T07:22:35;98972.84;;;28.44;51.16
77587;BME280;66744;49.716;17.158;2023-07-16T07:25:36;98973.94;;;28.33;51.15
77587;BME280;66744;49.716;17.158;2023-07-16T07:28:37;98976.72;;;28.26;51.99
77587;BME280;66744;49.716;17.158;2023-07-16T07:31:43;98986.34;;;28.30;51.38
77587;BME280;66744;49.716;17.158;2023-07-16T07:35:00;98972.94;;;28.23;51.18
77587;BME280;66744;49.716;17.158;2023-07-16T07:38:01;98985.63;;;28.30;50.82
77587;BME280;66744;49.716;17.158;2023-07-16T07:41:05;98990.50;;;28.29;51.56
77587;BME280;66744;49.716;17.158;2023-07-16T07:44:09;98990.34;;;28.35;51.42
77587;BME280;66744;49.716;17.158;2023-07-16T07:47:13;98994.81;;;28.30;51.08
77587;BME280;66744;49.716;17.158;2023-07-16T07:50:15;98993.50;;;28.24;51.20
77587;BME280;66744;49.716;17.158;2023-07-16T07:53:16;98982.31;;;28.18;50.94
77587;BME280;66744;49.716;17.158;2023-07-16T07:56:19;98986.91;;;28.29;51.68
77587;BME280;66744;49.716;17.158;2023-07-16T07:59:21;98972.44;;;28.32;51.48
77587;BME280;66744;49.716;17.158;2023-07-16T08:02:22;98988.47;;;28.45;51.14
77587;BME280;66744;49.716;17.158;2023-07-16T08:05:26;98974.75;;;28.49;51.36
77587;BME280;66744;49.716;17.158;2023-07-16T08:08:27;98973.53;;;28.73;50.63
77587;BME280;66744;49.716;17.158;2023-07-16T08:11:29;98987.34;;;28.91;51.22
77587;BME280;66744;49.716;17.158;2023-07-16T08:14:30;98976.97;;;28.94;49.89
77587;BME280;66744;49.716;17.158;2023-07-16T08:17:32;98970.94;;;28.90;49.99
77587;BME280;66744;49.716;17.158;2023-07-16T08:20:35;98972.28;;;29.04;49.88
77587;BME280;66744;49.716;17.158;2023-07-16T08:23:37;98981.00;;;29.29;49.59
77587;BME280;66744;49.716;17.158;2023-07-16T08:26:38;98984.34;;;29.19;49.46
77587;BME280;66744;49.716;17.158;2023-07-16T08:29:39;99001.72;;;29.08;49.67
77587;BME280;66744;49.716;17.158;2023-07-16T08:32:40;99003.19;;;28.94;49.35
77587;BME280;66744;49.716;17.158;2023-07-16T08:35:42;99002.06;;;28.97;50.14
77587;BME280;66744;49.716;17.158;2023-07-16T08:38:45;99001.31;;;28.97;49.95
77587;BME280;66744;49.716;17.158;2023-07-16T08:41:48;99001.50;;;28.99;49.43
77587;BME280;66744;49.716;17.158;2023-07-16T08:44:50;99006.59;;;29.00;50.18
77587;BME280;66744;49.716;17.158;2023-07-16T08:47:52;99002.44;;;28.94;50.25
77587;BME280;66744;49.716;17.158;2023-07-16T08:50:58;98997.72;;;28.96;49.75
77587;BME280;66744;49.716;17.158;2023-07-16T08:54:00;98996.25;;;29.18;49.34
77587;BME280;66744;49.716;17.158;2023-07-16T08:57:03;98997.44;;;29.38;49.19
77587;BME280;66744;49.716;17.158;2023-07-16T09:00:17;98990.25;;;29.59;48.24
77587;BME280;66744;49.716;17.158;2023-07-16T09:03:18;99006.50;;;29.66;48.64
77587;BME280;66744;49.716;17.158;2023-07-16T09:06:20;98994.38;;;29.73;48.23
77587;BME280;66744;49.716;17.158;2023-07-16T09:09:22;98992.13;;;29.80;47.52
77587;BME280;66744;49.716;17.158;2023-07-16T09:12:27;98991.75;;;29.91;47.99
77587;BME280;66744;49.716;17.158;2023-07-16T09:15:29;98981.16;;;29.91;47.66
77587;BME280;66744;49.716;17.158;2023-07-16T09:18:43;98979.81;;;30.00;45.93
77587;BME280;66744;49.716;17.158;2023-07-16T09:21:51;98981.31;;;30.16;46.49
77587;BME280;66744;49.716;17.158;2023-07-16T09:25:01;98979.78;;;30.15;46.04
77587;BME280;66744;49.716;17.158;2023-07-16T09:28:20;98991.47;;;30.26;46.34
77587;BME280;66744;49.716;17.158;2023-07-16T09:31:27;98972.91;;;30.33;45.67
77587;BME280;66744;49.716;17.158;2023-07-16T09:34:33;98975.34;;;30.44;45.80
77587;BME280;66744;49.716;17.158;2023-07-16T09:37:38;98976.81;;;30.53;45.58
77587;BME280;66744;49.716;17.158;2023-07-16T09:40:51;98968.69;;;30.57;45.17
77587;BME280;66744;49.716;17.158;2023-07-16T09:43:58;98962.44;;;30.58;43.65
77587;BME280;66744;49.716;17.158;2023-07-16T09:47:00;98966.47;;;30.48;43.77
77587;BME280;66744;49.716;17.158;2023-07-16T09:50:02;98952.31;;;30.40;44.55
77587;BME280;66744;49.716;17.158;2023-07-16T09:53:06;98967.75;;;30.54;44.58
77587;BME280;66744;49.716;17.158;2023-07-16T09:56:12;98958.13;;;30.50;43.55
77587;BME280;66744;49.716;17.158;2023-07-16T09:59:22;98961.50;;;30.56;44.16
77587;BME280;66744;49.716;17.158;2023-07-16T10:02:27;98956.34;;;30.62;42.06
77587;BME280;66744;49.716;17.158;2023-07-16T10:05:28;98963.06;;;30.81;42.30
77587;BME280;66744;49.716;17.158;2023-07-16T10:08:36;98955.66;;;30.94;42.96
77587;BME280;66744;49.716;17.158;2023-07-16T10:11:38;98946.91;;;30.92;41.11
77587;BME280;66744;49.716;17.158;2023-07-16T10:14:43;98943.22;;;30.81;41.85
77587;BME280;66744;49.716;17.158;2023-07-16T10:17:50;98939.22;;;30.84;41.86
77587;BME280;66744;49.716;17.158;2023-07-16T10:20:52;98934.31;;;30.85;42.66
77587;BME280;66744;49.716;17.158;2023-07-16T10:23:59;98942.59;;;30.91;42.54
77587;BME280;66744;49.716;17.158;2023-07-16T10:27:01;98938.03;;;30.95;43.09
77587;BME280;66744;49.716;17.158;2023-07-16T10:30:04;98939.44;;;31.11;42.91
77587;BME280;66744;49.716;17.158;2023-07-16T10:33:12;98943.56;;;31.18;41.01
77587;BME280;66744;49.716;17.158;2023-07-16T10:36:18;98938.03;;;31.20;41.92
77587;BME280;66744;49.716;17.158;2023-07-16T10:39:20;98942.84;;;31.34;41.62
77587;BME280;66744;49.716;17.158;2023-07-16T10:42:23;98951.41;;;31.52;41.95
77587;BME280;66744;49.716;17.158;2023-07-16T10:45:25;98940.81;;;31.52;42.03
77587;BME280;66744;49.716;17.158;2023-07-16T10:48:26;98941.69;;;31.62;42.47
77587;BME280;66744;49.716;17.158;2023-07-16T10:51:30;98940.81;;;31.69;41.27
77587;BME280;66744;49.716;17.158;2023-07-16T10:54:32;98946.59;;;31.79;41.00
77587;BME280;66744;49.716;17.158;2023-07-16T10:57:33;98942.69;;;31.74;40.28
77587;BME280;66744;49.716;17.158;2023-07-16T11:00:47;98946.50;;;31.69;39.51
77587;BME280;66744;49.716;17.158;2023-07-16T11:03:51;98932.97;;;31.60;40.07
77587;BME280;66744;49.716;17.158;2023-07-16T11:07:08;98952.84;;;31.60;40.50
77587;BME280;66744;49.716;17.158;2023-07-16T11:10:14;98946.09;;;31.73;40.32
77587;BME280;66744;49.716;17.158;2023-07-16T11:13:16;98943.59;;;31.77;39.85
77587;BME280;66744;49.716;17.158;2023-07-16T11:16:17;98948.13;;;31.80;39.89
77587;BME280;66744;49.716;17.158;2023-07-16T11:19:21;98945.94;;;31.88;40.30
77587;BME280;66744;49.716;17.158;2023-07-16T11:22:26;98955.91;;;32.14;39.71
77587;BME280;66744;49.716;17.158;2023-07-16T11:25:29;98950.56;;;32.18;38.75
77587;BME280;66744;49.716;17.158;2023-07-16T11:28:41;98939.28;;;32.27;39.49
77587;BME280;66744;49.716;17.158;2023-07-16T11:31:44;98942.59;;;32.33;38.56
77587;BME280;66744;49.716;17.158;2023-07-16T11:34:54;98943.34;;;32.34;37.78
77587;BME280;66744;49.716;17.158;2023-07-16T11:37:57;98938.66;;;32.29;37.61
77587;BME280;66744;49.716;17.158;2023-07-16T11:41:00;98938.13;;;32.40;37.34
77587;BME280;66744;49.716;17.158;2023-07-16T11:44:01;98929.59;;;32.40;37.63
77587;BME280;66744;49.716;17.158;2023-07-16T11:47:03;98947.13;;;32.36;37.11
77587;BME280;66744;49.716;17.158;2023-07-16T11:50:05;98948.28;;;32.16;37.93
77587;BME280;66744;49.716;17.158;2023-07-16T11:53:07;98941.69;;;31.97;38.09
77587;BME280;66744;49.716;17.158;2023-07-16T11:56:08;98940.06;;;31.69;39.13
77587;BME280;66744;49.716;17.158;2023-07-16T11:59:13;98947.25;;;31.53;39.14
77587;BME280;66744;49.716;17.158;2023-07-16T12:02:17;98949.44;;;31.62;38.47
77587;BME280;66744;49.716;17.158;2023-07-16T12:05:19;98936.16;;;31.64;39.27
77587;BME280;66744;49.716;17.158;2023-07-16T12:08:20;98931.91;;;31.73;38.43
77587;BME280;66744;49.716;17.158;2023-07-16T12:11:27;98929.41;;;31.94;37.95
77587;BME280;66744;49.716;17.158;2023-07-16T12:14:28;98934.09;;;32.16;39.13
77587;BME280;66744;49.716;17.158;2023-07-16T12:17:30;98938.78;;;32.21;37.35
77587;BME280;66744;49.716;17.158;2023-07-16T12:20:33;98934.56;;;32.22;37.95
77587;BME280;66744;49.716;17.158;2023-07-16T12:23:42;98944.63;;;32.23;37.28
77587;BME280;66744;49.716;17.158;2023-07-16T12:26:43;98953.66;;;32.12;37.52
77587;BME280;66744;49.716;17.158;2023-07-16T12:29:45;98956.50;;;31.95;38.16
77587;BME280;66744;49.716;17.158;2023-07-16T12:32:58;98953.63;;;31.78;37.86
77587;BME280;66744;49.716;17.158;2023-07-16T12:35:59;98954.13;;;31.84;37.22
77587;BME280;66744;49.716;17.158;2023-07-16T12:39:04;98950.63;;;31.76;37.92
77587;BME280;66744;49.716;17.158;2023-07-16T12:42:06;98961.56;;;31.62;37.81
77587;BME280;66744;49.716;17.158;2023-07-16T12:45:08;98969.25;;;31.69;38.32
77587;BME280;66744;49.716;17.158;2023-07-16T12:48:11;98981.25;;;31.60;37.49
77587;BME280;66744;49.716;17.158;2023-07-16T12:51:13;98987.13;;;31.62;38.98
77587;BME280;66744;49.716;17.158;2023-07-16T12:54:17;98976.28;;;31.68;37.61
77587;BME280;66744;49.716;17.158;2023-07-16T12:57:18;98985.06;;;31.80;37.16
77587;BME280;66744;49.716;17.158;2023-07-16T13:00:22;98976.19;;;31.76;37.38
77587;BME280;66744;49.716;17.158;2023-07-16T13:03:24;98976.44;;;31.70;37.86
77587;BME280;66744;49.716;17.158;2023-07-16T13:06:25;98974.59;;;31.65;37.14
77587;BME280;66744;49.716;17.158;2023-07-16T13:09:29;98976.09;;;31.66;37.52
77587;BME280;66744;49.716;17.158;2023-07-16T13:12:30;98972.06;;;31.52;37.39
77587;BME280;66744;49.716;17.158;2023-07-16T13:15:32;98981.75;;;31.49;37.56
77587;BME280;66744;49.716;17.158;2023-07-16T13:18:34;98980.97;;;31.49;37.79
77587;BME280;66744;49.716;17.158;2023-07-16T13:21:40;98973.56;;;31.53;36.56
77587;BME280;66744;49.716;17.158;2023-07-16T13:24:42;98980.75;;;31.54;36.40
77587;BME280;66744;49.716;17.158;2023-07-16T13:27:43;98973.59;;;31.46;35.60
77587;BME280;66744;49.716;17.158;2023-07-16T13:30:45;98973.59;;;31.46;35.61
77587;BME280;66744;49.716;17.158;2023-07-16T13:33:46;98983.59;;;31.54;36.29
77587;BME280;66744;49.716;17.158;2023-07-16T13:36:47;98993.63;;;31.55;36.36
77587;BME280;66744;49.716;17.158;2023-07-16T13:39:49;98991.78;;;31.50;36.75
77587;BME280;66744;49.716;17.158;2023-07-16T13:42:51;98990.94;;;31.32;36.97
77587;BME280;66744;49.716;17.158;2023-07-16T13:45:58;98993.66;;;31.23;37.12
77587;BME280;66744;49.716;17.158;2023-07-16T13:49:00;98988.75;;;31.23;36.63
77587;BME280;66744;49.716;17.158;2023-07-16T13:52:01;98970.72;;;31.28;37.00
77587;BME280;66744;49.716;17.158;2023-07-16T13:55:04;98966.25;;;31.43;37.58
77587;BME280;66744;49.716;17.158;2023-07-16T13:58:06;98981.53;;;31.47;36.99
77587;BME280;66744;49.716;17.158;2023-07-16T14:01:13;98977.59;;;31.43;37.32
77587;BME280;66744;49.716;17.158;2023-07-16T14:04:16;98988.56;;;31.46;36.97
77587;BME280;66744;49.716;17.158;2023-07-16T14:07:18;98983.28;;;31.43;37.51
77587;BME280;66744;49.716;17.158;2023-07-16T14:10:19;98984.97;;;31.46;36.42
77587;BME280;66744;49.716;17.158;2023-07-16T14:13:26;98985.34;;;31.42;37.11
77587;BME280;66744;49.716;17.158;2023-07-16T14:16:28;98979.75;;;31.34;37.64
77587;BME280;66744;49.716;17.158;2023-07-16T14:19:32;98986.66;;;31.24;38.14
77587;BME280;66744;49.716;17.158;2023-07-16T14:22:36;98987.91;;;31.30;37.77
77587;BME280;66744;49.716;17.158;2023-07-16T14:25:37;98990.94;;;31.32;36.97
77587;BME280;66744;49.716;17.158;2023-07-16T14:28:39;98980.31;;;31.33;37.11
77587;BME280;66744;49.716;17.158;2023-07-16T14:31:40;98973.66;;;31.38;37.13
77587;BME280;66744;49.716;17.158;2023-07-16T14:34:42;98964.56;;;31.39;37.03
77587;BME280;66744;49.716;17.158;2023-07-16T14:37:45;98969.06;;;31.50;37.00
77587;BME280;66744;49.716;17.158;2023-07-16T14:40:54;98977.03;;;31.44;37.84
77587;BME280;66744;49.716;17.158;2023-07-16T14:43:55;98974.94;;;31.45;37.50
77587;BME280;66744;49.716;17.158;2023-07-16T14:46:56;98975.50;;;31.51;37.47
77587;BME280;66744;49.716;17.158;2023-07-16T14:49:58;98971.69;;;31.48;37.17
77587;BME280;66744;49.716;17.158;2023-07-16T14:52:59;98961.16;;;31.41;36.63
77587;BME280;66744;49.716;17.158;2023-07-16T14:56:02;98964.91;;;31.44;37.60
77587;BME280;66744;49.716;17.158;2023-07-16T14:59:05;98960.34;;;31.48;37.29
77587;BME280;66744;49.716;17.158;2023-07-16T15:02:06;98944.56;;;31.55;36.69
77587;BME280;66744;49.716;17.158;2023-07-16T15:05:08;98952.84;;;31.60;36.52
77587;BME280;66744;49.716;17.158;2023-07-16T15:08:09;98947.75;;;31.59;36.50
77587;BME280;66744;49.716;17.158;2023-07-16T15:11:11;98945.84;;;31.61;36.43
77587;BME280;66744;49.716;17.158;2023-07-16T15:14:13;98950.00;;;31.60;37.11
77587;BME280;66744;49.716;17.158;2023-07-16T15:17:15;98945.03;;;31.68;36.44
77587;BME280;66744;49.716;17.158;2023-07-16T15:20:16;98941.59;;;31.70;36.23
77587;BME280;66744;49.716;17.158;2023-07-16T15:23:23;98937.94;;;31.77;36.41
77587;BME280;66744;49.716;17.158;2023-07-16T15:26:27;98943.00;;;31.78;36.74
77587;BME280;66744;49.716;17.158;2023-07-16T15:29:29;98939.75;;;31.82;36.02
77587;BME280;66744;49.716;17.158;2023-07-16T15:32:33;98926.63;;;31.86;35.96
77587;BME280;66744;49.716;17.158;2023-07-16T15:35:37;98935.25;;;31.79;36.95
77587;BME280;66744;49.716;17.158;2023-07-16T15:38:43;98942.69;;;31.74;36.66
77587;BME280;66744;49.716;17.158;2023-07-16T15:41:44;98933.31;;;31.81;35.98
77587;BME280;66744;49.716;17.158;2023-07-16T15:44:49;98940.84;;;31.86;36.68
77587;BME280;66744;49.716;17.158;2023-07-16T15:47:50;98937.25;;;31.86;36.45
77587;BME280;66744;49.716;17.158;2023-07-16T15:50:58;98950.72;;;31.68;37.02
77587;BME280;66744;49.716;17.158;2023-07-16T15:53:59;98942.25;;;31.61;36.27
77587;BME280;66744;49.716;17.158;2023-07-16T15:57:01;98944.31;;;31.60;37.17